Time;durP1;ratioP1;P1;durP2;ratioP2;P2;SDS_P1;SDS_P2;PMS_P1;PMS_P2;Temp;Humidity;BMP_temperature;BMP_pressure;BME280_temperature;BME280_humidity;BME280_pressure;Samples;Min_cycle;Max_cycle;Signal;HPM_P1;HPM_P2
2024/02/20 00:02:19;;;;;;;32.25;5.35;;;7.50;99.90;;;;;;4870940;29;20088;-66
2024/02/20 00:04:45;;;;;;;14.52;4.13;;;7.40;99.90;;;;;;4894386;29;20120;-66
2024/02/20 00:07:11;;;;;;;22.08;4.93;;;7.40;99.90;;;;;;4880165;29;20387;-66
2024/02/20 00:09:36;;;;;;;14.05;3.30;;;7.40;99.90;;;;;;4896818;29;20231;-65
2024/02/20 00:12:02;;;;;;;20.27;4.72;;;7.30;99.90;;;;;;4874050;29;20120;-66
2024/02/20 00:14:38;;;;;;;19.77;3.67;;;7.40;99.90;;;;;;5071289;28;20130;-68
2024/02/20 00:17:04;;;;;;;17.40;3.25;;;7.40;99.90;;;;;;5056114;28;20961;-67
2024/02/20 00:19:29;;;;;;;19.85;3.97;;;7.40;99.90;;;;;;5056616;28;20079;-67
2024/02/20 00:21:55;;;;;;;22.23;4.15;;;7.40;99.90;;;;;;5057709;28;20475;-67
2024/02/20 00:24:21;;;;;;;22.55;4.68;;;7.30;99.90;;;;;;5058676;28;20021;-68
2024/02/20 00:26:47;;;;;;;22.95;5.00;;;7.20;99.90;;;;;;5059256;28;20091;-67
2024/02/20 00:29:12;;;;;;;18.55;3.72;;;7.10;99.90;;;;;;5056008;28;20029;-67
2024/02/20 00:31:38;;;;;;;20.85;4.30;;;7.00;99.90;;;;;;5055287;28;20616;-68
2024/02/20 00:34:03;;;;;;;20.58;3.85;;;6.90;99.90;;;;;;5058850;28;20504;-67
2024/02/20 00:36:29;;;;;;;22.80;3.45;;;6.90;99.90;;;;;;5060669;28;20029;-67
2024/02/20 00:38:55;;;;;;;15.75;3.67;;;6.80;99.90;;;;;;5061556;28;20415;-67
2024/02/20 00:41:22;;;;;;;20.88;3.55;;;6.70;99.90;;;;;;5053995;28;20029;-68
2024/02/20 00:43:48;;;;;;;23.80;4.00;;;6.70;99.90;;;;;;5059021;28;20031;-67
2024/02/20 00:46:19;;;;;;;18.42;3.55;;;6.60;99.90;;;;;;5059143;28;20075;-68
2024/02/20 00:48:46;;;;;;;18.52;4.97;;;6.60;99.90;;;;;;5057706;28;20108;-67
2024/02/20 00:51:18;;;;;;;22.25;4.60;;;6.60;99.90;;;;;;5055073;28;20024;-67
2024/02/20 00:53:48;;;;;;;18.50;2.28;;;6.40;99.90;;;;;;5055481;28;20550;-68
2024/02/20 00:56:14;;;;;;;32.43;5.13;;;6.40;99.90;;;;;;5055780;28;20100;-67
2024/02/20 00:58:41;;;;;;;22.88;3.78;;;6.30;99.90;;;;;;5059428;28;20070;-67
2024/02/20 01:01:10;;;;;;;29.58;4.20;;;6.40;99.90;;;;;;5058186;28;20032;-67
2024/02/20 01:03:37;;;;;;;21.85;4.70;;;6.40;99.90;;;;;;5058495;28;20025;-67
2024/02/20 01:06:03;;;;;;;23.60;4.00;;;6.30;99.90;;;;;;5055734;28;20567;-68
2024/02/20 01:08:28;;;;;;;29.00;3.60;;;6.30;99.90;;;;;;5058630;28;20028;-67
2024/02/20 01:10:55;;;;;;;16.05;2.53;;;6.30;99.90;;;;;;5058582;28;20037;-66
2024/02/20 01:13:20;;;;;;;19.67;3.90;;;6.20;99.90;;;;;;5059459;28;20178;-66
2024/02/20 01:15:46;;;;;;;24.00;4.13;;;6.20;99.90;;;;;;5059037;28;20111;-67
2024/02/20 01:18:12;;;;;;;21.17;4.95;;;6.20;99.90;;;;;;5054916;28;20032;-66
2024/02/20 01:20:39;;;;;;;21.80;4.47;;;6.20;99.90;;;;;;5059173;28;20044;-66
2024/02/20 01:23:04;;;;;;;26.35;4.15;;;6.20;99.90;;;;;;5059088;28;20045;-66
2024/02/20 01:25:30;;;;;;;24.73;4.25;;;6.20;99.90;;;;;;5049467;28;20048;-67
2024/02/20 01:27:56;;;;;;;29.77;4.57;;;6.20;99.90;;;;;;5043382;28;20033;-66
2024/02/20 01:30:21;;;;;;;33.00;3.63;;;6.30;99.90;;;;;;5047063;28;20047;-66
2024/02/20 01:32:48;;;;;;;23.40;3.92;;;6.30;99.90;;;;;;5039848;28;20606;-66
2024/02/20 01:35:14;;;;;;;13.73;2.67;;;6.40;99.90;;;;;;5040282;28;20018;-66
2024/02/20 01:37:41;;;;;;;16.00;3.53;;;6.40;99.90;;;;;;5047266;28;20017;-66
2024/02/20 01:40:08;;;;;;;19.85;3.28;;;6.50;99.90;;;;;;5040895;28;20296;-66
2024/02/20 01:42:35;;;;;;;17.58;3.38;;;6.50;99.90;;;;;;5045548;28;20110;-67
2024/02/20 01:45:01;;;;;;;17.48;2.92;;;6.50;99.90;;;;;;5042285;28;20033;-67
2024/02/20 01:47:28;;;;;;;33.13;4.03;;;6.40;99.90;;;;;;5043612;28;20108;-67
2024/02/20 01:49:54;;;;;;;14.85;3.03;;;6.40;99.90;;;;;;5041330;28;20475;-66
2024/02/20 01:52:20;;;;;;;23.98;3.78;;;6.30;99.90;;;;;;5029737;28;20574;-67
2024/02/20 01:54:46;;;;;;;16.73;3.28;;;6.30;99.90;;;;;;5039350;28;20013;-67
2024/02/20 01:57:12;;;;;;;22.63;4.15;;;6.20;99.90;;;;;;5044293;28;20476;-67
2024/02/20 01:59:37;;;;;;;26.42;3.97;;;6.10;99.90;;;;;;5042790;28;20025;-66
2024/02/20 02:02:03;;;;;;;27.70;4.25;;;6.10;99.90;;;;;;5043151;28;20026;-67
2024/02/20 02:04:29;;;;;;;25.52;3.45;;;6.10;99.90;;;;;;5043582;28;20024;-67
2024/02/20 02:06:54;;;;;;;22.88;4.68;;;6.00;99.90;;;;;;5041837;28;20026;-67
2024/02/20 02:09:20;;;;;;;20.00;3.25;;;6.00;99.90;;;;;;5042631;28;20051;-67
2024/02/20 02:11:46;;;;;;;13.38;2.83;;;5.90;99.90;;;;;;5039619;28;20076;-66
2024/02/20 02:14:11;;;;;;;24.80;4.03;;;5.90;99.90;;;;;;5043392;28;20048;-66
2024/02/20 02:16:40;;;;;;;18.48;3.42;;;5.90;99.90;;;;;;5042772;28;20377;-66
2024/02/20 02:19:06;;;;;;;25.70;4.18;;;5.90;99.90;;;;;;5041941;28;20024;-67
2024/02/20 02:21:31;;;;;;;23.90;3.78;;;5.90;99.90;;;;;;5041472;28;20135;-67
2024/02/20 02:23:57;;;;;;;20.67;4.40;;;6.00;99.90;;;;;;5039931;28;20502;-67
2024/02/20 02:26:23;;;;;;;22.17;4.65;;;6.00;99.90;;;;;;5044593;28;20079;-67
2024/02/20 02:28:48;;;;;;;31.80;5.22;;;6.10;99.90;;;;;;5045741;28;20027;-67
2024/02/20 02:31:16;;;;;;;24.58;4.80;;;6.10;99.90;;;;;;5042376;28;20028;-68
2024/02/20 02:33:47;;;;;;;27.10;5.60;;;6.20;99.90;;;;;;5043623;28;20459;-68
2024/02/20 02:36:13;;;;;;;20.83;4.35;;;6.20;99.90;;;;;;5043498;28;20416;-68
2024/02/20 02:38:39;;;;;;;23.83;5.55;;;6.20;99.90;;;;;;5046130;28;20079;-67
2024/02/20 02:41:05;;;;;;;22.33;4.75;;;6.10;99.90;;;;;;5042643;28;20082;-68
2024/02/20 02:43:31;;;;;;;26.00;5.97;;;6.20;99.90;;;;;;5044888;28;20029;-68
2024/02/20 02:45:56;;;;;;;18.40;5.07;;;6.20;99.90;;;;;;5044788;28;20128;-67
2024/02/20 02:48:22;;;;;;;25.48;5.85;;;6.20;99.90;;;;;;5043163;28;20485;-68
2024/02/20 02:50:48;;;;;;;20.98;5.13;;;6.20;99.90;;;;;;5040897;28;20025;-68
2024/02/20 02:53:13;;;;;;;36.40;7.45;;;6.20;99.90;;;;;;5041096;28;20108;-67
2024/02/20 02:55:39;;;;;;;13.65;4.90;;;6.20;99.90;;;;;;5043464;28;20112;-67
2024/02/20 02:58:05;;;;;;;34.65;5.75;;;6.20;99.90;;;;;;5040030;28;20025;-68
2024/02/20 03:00:31;;;;;;;41.30;7.97;;;6.20;99.90;;;;;;5044894;28;20036;-68
2024/02/20 03:02:57;;;;;;;32.38;7.28;;;6.30;99.90;;;;;;5044156;28;20021;-68
2024/02/20 03:05:23;;;;;;;34.72;7.28;;;6.30;99.90;;;;;;5038757;28;20518;-68
2024/02/20 03:07:49;;;;;;;26.33;6.35;;;6.30;99.90;;;;;;5043118;28;20032;-68
2024/02/20 03:10:15;;;;;;;26.42;5.95;;;6.30;99.90;;;;;;5043161;28;20455;-67
2024/02/20 03:12:41;;;;;;;34.83;7.30;;;6.40;99.90;;;;;;5041909;28;20049;-67
2024/02/20 03:15:07;;;;;;;26.85;6.20;;;6.40;99.90;;;;;;5040677;28;20852;-67
2024/02/20 03:17:33;;;;;;;32.22;5.75;;;6.40;99.90;;;;;;5042837;28;20362;-68
2024/02/20 03:19:58;;;;;;;21.67;5.70;;;6.40;99.90;;;;;;5043075;28;20032;-68
2024/02/20 03:22:24;;;;;;;25.60;5.85;;;6.40;99.90;;;;;;5041589;28;20032;-67
2024/02/20 03:24:52;;;;;;;25.10;6.10;;;6.40;99.90;;;;;;5042027;28;20028;-67
2024/02/20 03:27:18;;;;;;;24.55;6.75;;;6.40;99.90;;;;;;5041056;28;20044;-67
2024/02/20 03:29:43;;;;;;;24.95;4.93;;;6.40;99.90;;;;;;5039841;28;20017;-68
2024/02/20 03:32:09;;;;;;;31.27;7.15;;;6.40;99.90;;;;;;5043599;28;20047;-67
2024/02/20 03:34:35;;;;;;;28.85;7.35;;;6.30;99.90;;;;;;5043339;28;20029;-67
2024/02/20 03:37:03;;;;;;;37.45;8.85;;;6.40;99.90;;;;;;5041280;28;20025;-67
2024/02/20 03:39:28;;;;;;;16.83;5.35;;;6.30;99.90;;;;;;5042601;28;20108;-68
2024/02/20 03:41:54;;;;;;;20.80;5.03;;;6.30;99.90;;;;;;5042892;28;20592;-67
2024/02/20 03:44:20;;;;;;;30.42;7.55;;;6.40;99.90;;;;;;5044752;28;20817;-67
2024/02/20 03:46:45;;;;;;;23.67;7.72;;;6.40;99.90;;;;;;5041854;28;20025;-67
2024/02/20 03:49:11;;;;;;;43.85;10.52;;;6.40;99.90;;;;;;5044564;28;20100;-67
2024/02/20 03:51:37;;;;;;;37.17;10.32;;;6.40;99.90;;;;;;5042481;28;20083;-67
2024/02/20 03:54:02;;;;;;;34.65;11.88;;;6.40;99.90;;;;;;5042658;28;20580;-67
2024/02/20 03:56:28;;;;;;;48.20;11.68;;;6.40;99.90;;;;;;5042631;28;20049;-67
2024/02/20 03:58:54;;;;;;;43.65;13.50;;;6.40;99.90;;;;;;5040464;28;20029;-67
2024/02/20 04:01:19;;;;;;;50.90;12.02;;;6.40;99.90;;;;;;5040591;28;20053;-67
2024/02/20 04:03:45;;;;;;;40.15;10.82;;;6.50;99.90;;;;;;5040806;28;20116;-67
2024/02/20 04:06:11;;;;;;;42.30;10.95;;;6.40;99.90;;;;;;5043386;28;20064;-67
2024/02/20 04:08:37;;;;;;;32.17;8.93;;;6.40;99.90;;;;;;5041962;28;20032;-66
2024/02/20 04:11:03;;;;;;;28.70;9.50;;;6.40;99.90;;;;;;5037327;28;20057;-67
2024/02/20 04:13:28;;;;;;;36.92;10.35;;;6.40;99.90;;;;;;5041991;28;20049;-67
2024/02/20 04:15:54;;;;;;;32.80;9.80;;;6.40;99.90;;;;;;5041378;28;20020;-67
2024/02/20 04:18:20;;;;;;;46.63;11.80;;;6.40;99.90;;;;;;5038180;28;20029;-67
2024/02/20 04:20:46;;;;;;;41.85;11.18;;;6.30;99.90;;;;;;5038303;28;20025;-67
2024/02/20 04:23:11;;;;;;;37.97;12.48;;;6.30;99.90;;;;;;5040553;28;20063;-67
2024/02/20 04:25:37;;;;;;;52.30;14.40;;;6.40;99.90;;;;;;5039192;28;20033;-67
2024/02/20 04:28:03;;;;;;;29.80;9.82;;;6.40;99.90;;;;;;5037838;28;20100;-67
2024/02/20 04:30:29;;;;;;;33.67;11.20;;;6.30;99.90;;;;;;5037247;28;20486;-67
2024/02/20 04:32:55;;;;;;;40.33;12.95;;;6.30;99.90;;;;;;5039160;28;20423;-67
2024/02/20 04:35:21;;;;;;;35.45;10.23;;;6.30;99.90;;;;;;5040535;28;20479;-67
2024/02/20 04:37:47;;;;;;;47.00;13.35;;;6.30;99.90;;;;;;5037916;28;20029;-66
2024/02/20 04:40:13;;;;;;;45.15;13.68;;;6.30;99.90;;;;;;5040519;28;20068;-67
2024/02/20 04:42:38;;;;;;;55.08;15.95;;;6.20;99.90;;;;;;5033568;28;20033;-66
2024/02/20 04:45:05;;;;;;;45.35;12.27;;;6.20;99.90;;;;;;5039685;28;20025;-66
2024/02/20 04:47:31;;;;;;;55.45;13.82;;;6.20;99.90;;;;;;5042772;28;20099;-66
2024/02/20 04:49:57;;;;;;;43.70;13.48;;;6.10;99.90;;;;;;5042670;28;20096;-66
2024/02/20 04:52:23;;;;;;;54.55;13.95;;;6.10;99.90;;;;;;5041793;28;20402;-66
2024/02/20 04:54:51;;;;;;;49.67;15.48;;;6.10;99.90;;;;;;5040422;28;20023;-66
2024/02/20 04:57:16;;;;;;;50.60;14.57;;;6.00;99.90;;;;;;5042225;28;20145;-66
2024/02/20 04:59:42;;;;;;;54.58;14.82;;;6.00;99.90;;;;;;5043798;28;20549;-66
2024/02/20 05:02:08;;;;;;;47.17;14.13;;;6.00;99.90;;;;;;5040772;28;20096;-67
2024/02/20 05:04:34;;;;;;;51.78;14.82;;;6.00;99.90;;;;;;5046244;28;20167;-66
2024/02/20 05:07:00;;;;;;;42.67;14.07;;;6.00;99.90;;;;;;5042478;28;20094;-66
2024/02/20 05:09:25;;;;;;;55.03;13.18;;;6.00;99.90;;;;;;5038976;28;20491;-65
2024/02/20 05:11:51;;;;;;;45.20;14.27;;;6.00;99.90;;;;;;5039295;28;20029;-66
2024/02/20 05:14:16;;;;;;;45.30;14.65;;;5.90;99.90;;;;;;5042926;28;20746;-66
2024/02/20 05:16:42;;;;;;;31.55;9.45;;;6.00;99.90;;;;;;5043086;28;20103;-67
2024/02/20 05:19:08;;;;;;;49.10;13.80;;;6.00;99.90;;;;;;5038233;28;20493;-66
2024/02/20 05:21:33;;;;;;;43.00;10.68;;;5.90;99.90;;;;;;5044115;28;20610;-67
2024/02/20 05:23:59;;;;;;;52.72;14.27;;;5.90;99.90;;;;;;5040972;28;20054;-67
2024/02/20 05:26:25;;;;;;;52.42;14.60;;;5.90;99.90;;;;;;5040858;28;20021;-67
2024/02/20 05:28:50;;;;;;;49.67;15.57;;;5.80;99.90;;;;;;5042459;28;20108;-66
2024/02/20 05:31:28;;;;;;;52.10;13.80;;;5.80;99.90;;;;;;5037824;28;20025;-66
2024/02/20 05:33:54;;;;;;;49.72;13.32;;;5.80;99.90;;;;;;5033188;28;20389;-66
2024/02/20 05:36:20;;;;;;;45.10;14.90;;;5.80;99.90;;;;;;5036332;28;20021;-67
2024/02/20 05:38:45;;;;;;;57.03;15.50;;;5.70;99.90;;;;;;5027017;28;20109;-66
2024/02/20 05:41:11;;;;;;;50.40;14.82;;;5.70;99.90;;;;;;5024496;28;20053;-66
2024/02/20 05:43:37;;;;;;;48.13;16.17;;;5.70;99.90;;;;;;5023230;28;20450;-66
2024/02/20 05:46:02;;;;;;;48.97;14.10;;;5.70;99.90;;;;;;5024007;28;20025;-65
2024/02/20 05:48:28;;;;;;;22.55;8.93;;;5.70;99.90;;;;;;5031119;28;20104;-65
2024/02/20 05:50:54;;;;;;;48.08;14.38;;;5.80;99.90;;;;;;5029214;28;20096;-67
2024/02/20 05:53:19;;;;;;;56.42;16.23;;;5.80;99.90;;;;;;5023381;28;20552;-67
2024/02/20 05:55:45;;;;;;;55.75;14.45;;;5.90;99.90;;;;;;5027964;28;20037;-66
2024/02/20 05:58:10;;;;;;;61.60;15.20;;;5.90;99.90;;;;;;5029433;28;20453;-67
2024/02/20 06:00:36;;;;;;;55.13;16.98;;;5.80;99.90;;;;;;5029786;28;20097;-67
2024/02/20 06:03:01;;;;;;;65.03;16.45;;;5.90;99.90;;;;;;5026423;28;20025;-67
2024/02/20 06:05:27;;;;;;;57.17;16.33;;;5.80;99.90;;;;;;5029707;28;20048;-68
2024/02/20 06:07:53;;;;;;;40.38;12.32;;;5.80;99.90;;;;;;5036069;28;20033;-68
2024/02/20 06:10:18;;;;;;;52.33;17.45;;;5.80;99.90;;;;;;5026623;28;20469;-67
2024/02/20 06:12:44;;;;;;;54.45;18.20;;;5.70;99.90;;;;;;5027280;28;20057;-67
2024/02/20 06:15:10;;;;;;;50.03;14.88;;;5.70;99.90;;;;;;5026708;28;20053;-67
2024/02/20 06:17:35;;;;;;;52.65;17.17;;;5.70;99.90;;;;;;5033080;28;20022;-67
2024/02/20 06:20:01;;;;;;;51.72;15.88;;;5.70;99.90;;;;;;5027607;28;20759;-67
2024/02/20 06:22:26;;;;;;;63.35;16.85;;;5.60;99.90;;;;;;5026857;28;20538;-67
2024/02/20 06:24:52;;;;;;;58.88;15.70;;;5.60;99.90;;;;;;5027358;28;20029;-67
2024/02/20 06:27:17;;;;;;;55.25;13.18;;;5.60;99.90;;;;;;5027945;28;20026;-66
2024/02/20 06:29:43;;;;;;;44.40;12.55;;;5.60;99.90;;;;;;5027883;28;20030;-67
2024/02/20 06:32:09;;;;;;;64.10;16.38;;;6.10;99.90;;;;;;5036398;28;20021;-67
2024/02/20 06:34:36;;;;;;;57.42;16.10;;;5.70;99.90;;;;;;5021826;28;20036;-67
2024/02/20 06:37:01;;;;;;;56.20;14.77;;;5.60;99.90;;;;;;5031663;28;20095;-66
2024/02/20 06:39:28;;;;;;;47.10;14.77;;;5.60;99.90;;;;;;5028325;28;20061;-67
2024/02/20 06:41:53;;;;;;;55.95;15.75;;;5.70;99.90;;;;;;5018624;28;20018;-67
2024/02/20 06:44:19;;;;;;;46.78;14.73;;;5.70;99.90;;;;;;5022029;28;20048;-67
2024/02/20 06:46:45;;;;;;;54.53;14.35;;;5.70;99.90;;;;;;5024715;28;20032;-67
2024/02/20 06:49:10;;;;;;;42.85;12.38;;;5.70;99.90;;;;;;5020582;28;20524;-67
2024/02/20 06:51:36;;;;;;;52.28;13.20;;;5.80;99.90;;;;;;5015041;28;20034;-66
2024/02/20 06:54:03;;;;;;;36.25;12.43;;;5.90;99.90;;;;;;5019658;28;20087;-68
2024/02/20 06:56:29;;;;;;;38.08;13.32;;;5.90;99.90;;;;;;5015503;28;20068;-67
2024/02/20 06:58:55;;;;;;;58.35;14.32;;;5.90;99.90;;;;;;5027946;28;20029;-67
2024/02/20 07:01:20;;;;;;;41.45;13.68;;;5.90;99.90;;;;;;5021531;28;20030;-66
2024/02/20 07:03:48;;;;;;;42.33;12.60;;;6.00;99.90;;;;;;5026651;28;20029;-67
2024/02/20 07:06:14;;;;;;;38.25;13.30;;;6.00;99.90;;;;;;5024172;28;20025;-68
2024/02/20 07:08:43;;;;;;;41.25;12.38;;;6.00;99.90;;;;;;5022151;28;20041;-69
2024/02/20 07:11:10;;;;;;;40.15;11.25;;;6.00;99.90;;;;;;5023188;28;20156;-68
2024/02/20 07:13:38;;;;;;;53.47;12.07;;;6.00;99.90;;;;;;5017899;28;20045;-67
2024/02/20 07:16:05;;;;;;;40.75;11.95;;;6.00;99.90;;;;;;5025377;28;20670;-67
2024/02/20 07:18:31;;;;;;;40.65;11.25;;;6.20;99.90;;;;;;5021617;28;20049;-69
2024/02/20 07:20:57;;;;;;;41.13;11.77;;;6.20;99.90;;;;;;5023728;28;20065;-67
2024/02/20 07:23:23;;;;;;;38.65;11.27;;;6.20;99.90;;;;;;5027529;28;20108;-67
2024/02/20 07:25:48;;;;;;;38.10;10.50;;;6.30;99.90;;;;;;5027701;28;20056;-67
2024/02/20 07:28:14;;;;;;;32.47;10.52;;;6.30;99.90;;;;;;5028537;28;20479;-67
2024/02/20 07:30:40;;;;;;;37.00;10.48;;;6.40;99.90;;;;;;5022160;28;20025;-67
2024/02/20 07:33:05;;;;;;;30.67;9.43;;;6.40;99.90;;;;;;5026147;28;20025;-67
2024/02/20 07:35:31;;;;;;;27.42;8.80;;;6.40;99.90;;;;;;5027845;28;20172;-68
2024/02/20 07:37:56;;;;;;;32.38;9.45;;;6.50;99.90;;;;;;5020293;28;20488;-67
2024/02/20 07:40:22;;;;;;;30.77;10.45;;;6.60;99.90;;;;;;5024050;28;20040;-67
2024/02/20 07:42:49;;;;;;;34.22;9.32;;;6.60;99.90;;;;;;5021603;28;20033;-68
2024/02/20 07:45:14;;;;;;;23.83;6.07;;;6.60;99.90;;;;;;5029600;28;20040;-69
2024/02/20 07:47:40;;;;;;;39.08;8.88;;;6.80;99.90;;;;;;5031264;28;20034;-67
2024/02/20 07:50:06;;;;;;;29.35;8.13;;;6.70;99.90;;;;;;5022509;28;20034;-68
2024/02/20 07:52:32;;;;;;;30.02;8.35;;;6.80;99.90;;;;;;5016092;28;20107;-68
2024/02/20 07:54:58;;;;;;;35.25;8.07;;;6.90;99.90;;;;;;5026938;28;20089;-68
2024/02/20 07:57:23;;;;;;;34.13;8.32;;;6.80;99.90;;;;;;5020017;28;20037;-67
2024/02/20 07:59:49;;;;;;;34.45;9.25;;;6.90;99.90;;;;;;5020229;28;20040;-68
2024/02/20 08:02:14;;;;;;;27.35;7.32;;;6.90;99.90;;;;;;5022288;28;20108;-67
2024/02/20 08:04:41;;;;;;;30.35;7.70;;;7.00;99.90;;;;;;5034337;28;20032;-68
2024/02/20 08:07:07;;;;;;;28.63;7.72;;;7.00;99.90;;;;;;5037872;28;20025;-68
2024/02/20 08:09:32;;;;;;;28.65;7.65;;;7.00;99.90;;;;;;5041559;28;20121;-68
2024/02/20 08:11:58;;;;;;;25.10;7.35;;;7.10;99.90;;;;;;5025851;28;20496;-68
2024/02/20 08:14:25;;;;;;;28.13;6.95;;;7.20;99.90;;;;;;5018298;28;20061;-68
2024/02/20 08:16:51;;;;;;;33.42;7.13;;;7.20;99.90;;;;;;5029519;28;20045;-68
2024/02/20 08:19:17;;;;;;;29.10;7.80;;;7.10;99.90;;;;;;5026606;28;20119;-69
2024/02/20 08:21:43;;;;;;;25.65;7.80;;;7.20;99.90;;;;;;5022611;28;20049;-67
2024/02/20 08:24:09;;;;;;;21.10;6.18;;;7.20;99.90;;;;;;5016717;28;20326;-68
2024/02/20 08:26:36;;;;;;;27.27;7.40;;;7.50;99.90;;;;;;5014160;28;20037;-68
2024/02/20 08:29:01;;;;;;;30.48;8.00;;;7.40;99.90;;;;;;5017705;28;20441;-67
2024/02/20 08:31:27;;;;;;;30.35;7.68;;;7.50;99.90;;;;;;5018755;28;20073;-68
2024/02/20 08:33:53;;;;;;;27.50;7.82;;;7.60;99.90;;;;;;5020178;28;20030;-68
2024/02/20 08:36:19;;;;;;;27.02;7.25;;;7.70;99.90;;;;;;5024982;28;20096;-68
2024/02/20 08:38:48;;;;;;;29.85;7.68;;;7.90;99.90;;;;;;5021421;28;20540;-68
2024/02/20 08:41:14;;;;;;;25.08;7.03;;;7.90;99.90;;;;;;5022203;28;20026;-68
2024/02/20 08:43:40;;;;;;;34.13;9.27;;;8.00;99.90;;;;;;5023827;28;20103;-68
2024/02/20 08:46:06;;;;;;;29.95;8.70;;;7.80;99.90;;;;;;5022285;28;20382;-67
2024/02/20 08:48:32;;;;;;;27.30;7.38;;;7.90;99.90;;;;;;5032785;28;20083;-67
2024/02/20 08:50:58;;;;;;;29.15;9.52;;;7.90;99.90;;;;;;5021070;28;20030;-68
2024/02/20 08:53:24;;;;;;;29.85;9.77;;;7.90;99.90;;;;;;5020173;28;20124;-68
2024/02/20 08:55:50;;;;;;;39.85;10.20;;;7.90;99.90;;;;;;5023956;28;20642;-67
2024/02/20 08:58:17;;;;;;;37.83;10.73;;;7.90;99.90;;;;;;5024671;28;20018;-68
2024/02/20 09:00:44;;;;;;;31.02;10.15;;;8.00;99.90;;;;;;5021405;28;20033;-67
2024/02/20 09:03:10;;;;;;;36.58;9.32;;;8.10;99.90;;;;;;5023259;28;20318;-68
2024/02/20 09:05:36;;;;;;;27.63;9.80;;;8.20;99.90;;;;;;5023715;28;20034;-67
2024/02/20 09:08:01;;;;;;;27.95;10.20;;;8.20;99.90;;;;;;5021199;28;20342;-68
2024/02/20 09:10:27;;;;;;;33.75;10.65;;;8.20;99.90;;;;;;5023022;28;20037;-68
2024/02/20 09:12:53;;;;;;;29.70;7.95;;;8.30;99.90;;;;;;5022356;28;20390;-68
2024/02/20 09:15:18;;;;;;;35.42;9.02;;;8.20;99.90;;;;;;5024312;28;20686;-68
2024/02/20 09:17:44;;;;;;;40.45;10.30;;;8.20;99.90;;;;;;5025581;28;20040;-67
2024/02/20 09:20:11;;;;;;;27.88;10.57;;;8.10;99.90;;;;;;5026043;28;20359;-68
2024/02/20 09:22:38;;;;;;;32.20;9.35;;;8.20;99.90;;;;;;5019517;28;20029;-68
2024/02/20 09:25:06;;;;;;;33.08;9.30;;;8.20;99.90;;;;;;5021236;28;20083;-67
2024/02/20 09:27:31;;;;;;;34.97;11.07;;;8.30;99.90;;;;;;5021414;28;20097;-67
2024/02/20 09:29:57;;;;;;;32.80;11.18;;;8.30;99.90;;;;;;5023128;28;20108;-67
2024/02/20 09:32:23;;;;;;;34.33;8.98;;;8.40;99.90;;;;;;5019348;28;20083;-67
2024/02/20 09:34:48;;;;;;;31.85;9.95;;;8.40;99.90;;;;;;5026631;28;20469;-68
2024/02/20 09:37:14;;;;;;;30.83;10.77;;;8.40;99.90;;;;;;5029998;28;20033;-67
2024/02/20 09:39:39;;;;;;;29.10;10.35;;;8.40;99.90;;;;;;5021559;28;20103;-68
2024/02/20 09:42:13;;;;;;;27.33;10.77;;;8.60;99.90;;;;;;5021094;28;20050;-67
2024/02/20 09:44:40;;;;;;;27.30;10.20;;;8.80;99.90;;;;;;5020086;28;20029;-67
2024/02/20 09:47:05;;;;;;;23.50;8.85;;;8.90;99.90;;;;;;5019807;28;20022;-67
2024/02/20 09:49:33;;;;;;;27.85;9.32;;;8.90;99.90;;;;;;5028084;28;20342;-67
2024/02/20 09:52:01;;;;;;;30.92;8.60;;;8.90;99.90;;;;;;5026186;28;20026;-67
2024/02/20 09:54:28;;;;;;;33.90;10.02;;;8.90;99.90;;;;;;5021734;28;20099;-67
2024/02/20 09:56:54;;;;;;;22.85;8.98;;;8.90;99.90;;;;;;5019860;28;20026;-67
2024/02/20 09:59:20;;;;;;;29.58;9.30;;;9.00;99.90;;;;;;5027567;28;20656;-67
2024/02/20 10:01:47;;;;;;;24.83;9.50;;;9.00;99.90;;;;;;5018629;28;20079;-67
2024/02/20 10:04:14;;;;;;;31.33;9.80;;;9.00;99.90;;;;;;5021414;28;20565;-67
2024/02/20 10:06:40;;;;;;;34.00;10.45;;;9.20;99.90;;;;;;5022594;28;20128;-67
2024/02/20 10:09:06;;;;;;;29.63;10.27;;;9.20;99.90;;;;;;5024144;28;20187;-67
2024/02/20 10:11:36;;;;;;;20.67;7.20;;;9.30;99.90;;;;;;5020114;28;20491;-67
2024/02/20 10:14:02;;;;;;;18.48;6.82;;;9.30;99.90;;;;;;5021166;28;20050;-67
2024/02/20 10:16:28;;;;;;;28.42;9.52;;;9.30;99.90;;;;;;5020457;28;20037;-67
2024/02/20 10:18:58;;;;;;;24.52;8.52;;;9.20;99.90;;;;;;5025130;28;20029;-67
2024/02/20 10:21:27;;;;;;;27.25;9.85;;;9.30;99.90;;;;;;5017290;28;20033;-68
2024/02/20 10:24:03;;;;;;;25.70;8.55;;;9.30;99.90;;;;;;5021091;28;20083;-67
2024/02/20 10:26:37;;;;;;;27.40;9.13;;;9.40;99.90;;;;;;5020793;28;20097;-67
2024/02/20 10:29:03;;;;;;;29.20;9.85;;;9.40;99.90;;;;;;5019778;28;20071;-67
2024/02/20 10:31:30;;;;;;;21.48;8.32;;;9.40;99.90;;;;;;5023796;28;20079;-67
2024/02/20 10:33:56;;;;;;;24.25;8.18;;;9.40;99.90;;;;;;5019823;28;20105;-68
2024/02/20 10:36:22;;;;;;;22.67;8.85;;;9.40;99.90;;;;;;5021576;28;20429;-68
2024/02/20 10:38:50;;;;;;;28.63;8.43;;;9.40;99.90;;;;;;5018890;28;20041;-68
2024/02/20 10:41:16;;;;;;;29.92;8.68;;;9.40;99.90;;;;;;5017810;28;20072;-68
2024/02/20 10:43:49;;;;;;;20.30;6.88;;;9.40;99.90;;;;;;5022383;28;20033;-68
2024/02/20 10:46:15;;;;;;;21.83;7.57;;;9.50;99.90;;;;;;5017923;28;20137;-67
2024/02/20 10:48:47;;;;;;;27.67;8.98;;;9.60;99.90;;;;;;5028723;28;20026;-67
2024/02/20 10:51:14;;;;;;;24.58;7.85;;;9.60;99.90;;;;;;5022824;28;20552;-68
2024/02/20 10:53:44;;;;;;;25.77;9.73;;;9.60;99.90;;;;;;5018300;28;20080;-68
2024/02/20 10:56:10;;;;;;;26.13;7.93;;;9.50;99.90;;;;;;5029075;28;20029;-67
2024/02/20 10:58:39;;;;;;;18.27;4.45;;;9.60;99.90;;;;;;5022986;28;20025;-68
2024/02/20 11:01:09;;;;;;;22.77;7.18;;;9.70;99.90;;;;;;5021193;28;20018;-67
2024/02/20 11:03:36;;;;;;;24.50;7.35;;;9.70;99.90;;;;;;5019480;28;20029;-68
2024/02/20 11:06:02;;;;;;;31.92;8.00;;;9.80;99.90;;;;;;5018256;28;20576;-68
2024/02/20 11:08:28;;;;;;;25.02;7.32;;;9.90;99.90;;;;;;5020399;28;20116;-67
2024/02/20 11:10:54;;;;;;;23.70;7.22;;;10.00;99.90;;;;;;5018999;28;20056;-67
2024/02/20 11:13:28;;;;;;;26.33;8.50;;;10.10;99.90;;;;;;5019003;28;20053;-67
2024/02/20 11:15:54;;;;;;;24.45;7.05;;;10.00;99.90;;;;;;5017243;28;20078;-67
2024/02/20 11:18:21;;;;;;;23.38;8.20;;;9.80;99.90;;;;;;5025868;28;20029;-67
2024/02/20 11:20:58;;;;;;;32.17;8.63;;;9.80;99.90;;;;;;5017019;28;20028;-68
2024/02/20 11:23:31;;;;;;;20.27;6.10;;;9.70;99.90;;;;;;5018286;28;20029;-67
2024/02/20 11:26:07;;;;;;;25.42;7.57;;;9.50;99.90;;;;;;5023492;28;20393;-67
2024/02/20 11:28:36;;;;;;;23.55;7.38;;;9.50;99.90;;;;;;5028402;28;20450;-68
2024/02/20 11:31:03;;;;;;;20.48;8.13;;;9.40;99.90;;;;;;5021297;28;20030;-68
2024/02/20 11:33:32;;;;;;;22.40;6.40;;;9.50;99.90;;;;;;5019756;28;20026;-67
2024/02/20 11:35:58;;;;;;;23.45;7.72;;;9.50;99.90;;;;;;5022188;28;20295;-67
2024/02/20 11:38:24;;;;;;;19.92;6.80;;;9.50;99.90;;;;;;5026715;28;20125;-68
2024/02/20 11:40:50;;;;;;;14.00;4.45;;;9.60;99.90;;;;;;5019666;28;20533;-67
2024/02/20 11:43:25;;;;;;;25.48;6.13;;;9.60;99.90;;;;;;5019945;28;20476;-67
2024/02/20 11:45:59;;;;;;;28.77;8.68;;;9.70;99.90;;;;;;5018778;28;20057;-67
2024/02/20 11:48:24;;;;;;;27.83;8.32;;;9.50;99.90;;;;;;5022439;28;20665;-66
2024/02/20 11:50:55;;;;;;;26.92;7.60;;;9.40;99.90;;;;;;5018431;28;20041;-67
2024/02/20 11:53:21;;;;;;;26.13;7.75;;;9.50;99.90;;;;;;5017142;28;20052;-66
2024/02/20 11:55:54;;;;;;;22.30;7.05;;;9.50;99.90;;;;;;5020275;28;20380;-66
2024/02/20 11:58:21;;;;;;;20.83;6.65;;;9.60;99.90;;;;;;5020624;28;20029;-66
2024/02/20 12:00:49;;;;;;;22.88;6.93;;;9.70;99.90;;;;;;5020053;28;20099;-67
2024/02/20 12:03:32;;;;;;;21.15;7.75;;;9.70;99.90;;;;;;5020477;28;20099;-66
2024/02/20 12:06:06;;;;;;;25.55;6.20;;;10.00;99.90;;;;;;5019237;28;20492;-66
2024/02/20 12:08:44;;;;;;;24.88;6.68;;;10.00;99.90;;;;;;5018443;28;20112;-67
2024/02/20 12:11:12;;;;;;;15.68;5.07;;;10.00;99.90;;;;;;5019937;28;20042;-67
2024/02/20 12:13:38;;;;;;;16.00;5.28;;;10.00;99.90;;;;;;5016838;28;20056;-66
2024/02/20 12:16:04;;;;;;;25.30;6.82;;;10.00;99.90;;;;;;5020534;28;20014;-67
2024/02/20 12:18:32;;;;;;;23.23;7.07;;;10.20;99.90;;;;;;5021351;28;20041;-66
2024/02/20 12:21:07;;;;;;;22.52;6.25;;;10.30;99.90;;;;;;5019306;28;20385;-67
2024/02/20 12:23:33;;;;;;;24.67;6.05;;;10.40;99.90;;;;;;5016414;28;20037;-66
2024/02/20 12:26:11;;;;;;;21.35;5.85;;;10.50;99.90;;;;;;5019374;28;20064;-67
2024/02/20 12:28:38;;;;;;;21.58;6.20;;;10.40;99.90;;;;;;5017800;28;20206;-66
2024/02/20 12:31:05;;;;;;;25.40;5.38;;;10.40;99.90;;;;;;5022754;28;20338;-67
2024/02/20 12:33:35;;;;;;;17.63;5.50;;;10.50;99.90;;;;;;5018098;28;20438;-67
2024/02/20 12:36:04;;;;;;;16.77;5.80;;;10.40;99.90;;;;;;5023913;28;20477;-66
2024/02/20 12:38:30;;;;;;;18.27;5.55;;;10.60;99.90;;;;;;5020291;28;20029;-66
2024/02/20 12:40:58;;;;;;;30.80;7.18;;;10.40;99.90;;;;;;5016646;28;20086;-67